createdAt,value
2022-08-20T00:00:41.479Z,99735.69
2022-08-20T00:03:13.973Z,99736.50
2022-08-20T00:05:44.620Z,99747.44
2022-08-20T00:08:11.615Z,99745.78
2022-08-20T00:10:41.647Z,99756.94
2022-08-20T00:13:10.734Z,99763.75
2022-08-20T00:15:42.411Z,99765.41
2022-08-20T00:18:09.049Z,99772.56
2022-08-20T00:20:43.437Z,99769.44
2022-08-20T00:23:10.796Z,99775.34
2022-08-20T00:25:38.849Z,99771.41
2022-08-20T00:28:07.056Z,99778.88
2022-08-20T00:30:35.559Z,99770.59
2022-08-20T00:33:08.424Z,99763.00
2022-08-20T00:35:37.418Z,99782.91
2022-08-20T00:38:04.773Z,99775.41
2022-08-20T00:40:36.150Z,99775.97
2022-08-20T00:43:06.418Z,99769.72
2022-08-20T00:45:35.615Z,99778.06
2022-08-20T00:48:02.301Z,99780.72
2022-08-20T00:50:34.185Z,99773.56
2022-08-20T00:53:02.826Z,99764.50
2022-08-20T00:55:31.756Z,99756.34
2022-08-20T00:58:03.687Z,99743.97
2022-08-20T01:00:35.726Z,99743.75
2022-08-20T01:03:02.254Z,99738.06
2022-08-20T01:05:30.196Z,99733.63
2022-08-20T01:07:57.733Z,99714.50
2022-08-20T01:10:28.502Z,99702.94
2022-08-20T01:12:59.630Z,99688.41
2022-08-20T01:15:31.142Z,99683.13
2022-08-20T01:18:01.919Z,99681.41
2022-08-20T01:20:33.659Z,99691.41
2022-08-20T01:23:27.946Z,99691.25
2022-08-20T01:26:06.034Z,99707.78
2022-08-20T01:28:37.766Z,99702.97
2022-08-20T01:31:12.177Z,99700.50
2022-08-20T01:33:39.140Z,99695.03
2022-08-20T01:36:06.643Z,99692.34
2022-08-20T01:38:34.222Z,99690.69
2022-08-20T01:41:43.866Z,99689.84
2022-08-20T01:44:14.324Z,99682.91
2022-08-20T01:46:47.207Z,99682.22
2022-08-20T01:49:23.041Z,99682.47
2022-08-20T01:51:52.261Z,99693.00
2022-08-20T01:54:20.284Z,99686.09
2022-08-20T01:57:11.938Z,99694.03
2022-08-20T01:59:40.071Z,99691.38
2022-08-20T02:02:07.319Z,99689.84
2022-08-20T02:04:34.961Z,99688.16
2022-08-20T02:07:04.959Z,99688.97
2022-08-20T02:09:36.258Z,99695.50
2022-08-20T02:12:04.507Z,99687.09
2022-08-20T02:14:31.096Z,99684.16
2022-08-20T02:16:59.018Z,99689.41
2022-08-20T02:19:34.939Z,99685.59
2022-08-20T02:22:08.627Z,99696.53
2022-08-20T02:24:35.488Z,99703.69
2022-08-20T02:27:02.028Z,99691.28
2022-08-20T02:29:28.636Z,99686.88
2022-08-20T02:32:32.290Z,99692.38
2022-08-20T02:34:42.129Z,99698.28
2022-08-20T02:37:09.664Z,99696.56
2022-08-20T02:39:36.317Z,99702.69
2022-08-20T02:42:03.927Z,99709.22
2022-08-20T02:44:31.235Z,99715.50
2022-08-20T02:46:58.411Z,99715.50
2022-08-20T02:49:24.953Z,99710.69
2022-08-20T02:51:51.709Z,99727.09
2022-08-20T02:54:18.651Z,99723.50
2022-08-20T02:56:45.246Z,99729.03
2022-08-20T02:59:12.515Z,99731.16
2022-08-20T03:01:45.726Z,99738.91
2022-08-20T03:04:12.327Z,99754.25
2022-08-20T03:06:38.904Z,99769.41
2022-08-20T03:09:07.718Z,99778.44
2022-08-20T03:11:34.963Z,99774.44
2022-08-20T03:14:02.348Z,99764.78
2022-08-20T03:16:28.939Z,99762.28
2022-08-20T03:18:55.826Z,99790.19
2022-08-20T03:21:22.585Z,99823.84
2022-08-20T03:23:49.306Z,99795.47
2022-08-20T03:26:16.535Z,99776.78
2022-08-20T03:28:43.536Z,99790.63
2022-08-20T03:31:10.903Z,99789.97
2022-08-20T03:33:48.847Z,99812.25
2022-08-20T03:36:24.206Z,99802.81
2022-08-20T03:38:57.883Z,99807.66
2022-08-20T03:41:25.314Z,99797.69
2022-08-20T03:43:51.924Z,99799.16
2022-08-20T03:46:22.937Z,99801.06
2022-08-20T03:49:00.031Z,99819.34
2022-08-20T03:51:29.419Z,99816.41
2022-08-20T03:53:56.069Z,99803.00
2022-08-20T03:56:22.619Z,99792.00
2022-08-20T03:58:49.274Z,99772.31
2022-08-20T04:01:45.079Z,99776.22
2022-08-20T04:04:02.486Z,99792.50
2022-08-20T04:06:30.428Z,99790.75
2022-08-20T04:08:57.485Z,99791.34
2022-08-20T04:11:24.430Z,99800.25
2022-08-20T04:13:51.331Z,99784.44
2022-08-20T04:16:19.330Z,99769.81
2022-08-20T04:19:01.878Z,99762.44
2022-08-20T04:21:32.518Z,99738.09
2022-08-20T04:24:00.846Z,99732.56
2022-08-20T04:26:27.426Z,99742.44
2022-08-20T04:28:55.486Z,99748.69
2022-08-20T04:31:25.296Z,99744.50
2022-08-20T04:33:52.094Z,99740.50
2022-08-20T04:36:18.631Z,99749.63
2022-08-20T04:38:50.095Z,99761.44
2022-08-20T04:41:21.025Z,99759.19
2022-08-20T04:43:50.243Z,99756.47
2022-08-20T04:46:17.070Z,99753.22
2022-08-20T04:48:48.893Z,99754.72
2022-08-20T04:51:16.982Z,99759.00
2022-08-20T04:53:50.384Z,99764.03
2022-08-20T04:56:23.897Z,99765.06
2022-08-20T04:58:52.375Z,99756.66
2022-08-20T05:01:19.405Z,99776.97
2022-08-20T05:03:48.863Z,99777.47
2022-08-20T05:06:17.782Z,99780.34
2022-08-20T05:08:45.407Z,99779.19
2022-08-20T05:11:35.357Z,99783.25
2022-08-20T05:13:59.086Z,99785.41
2022-08-20T05:16:27.078Z,99786.19
2022-08-20T05:18:53.627Z,99775.81
2022-08-20T05:21:20.812Z,99776.41
2022-08-20T05:23:47.561Z,99760.59
2022-08-20T05:26:16.035Z,99764.56
2022-08-20T05:28:54.123Z,99769.22
2022-08-20T05:31:31.754Z,99762.44
2022-08-20T05:34:09.723Z,99762.38
2022-08-20T05:36:40.090Z,99766.56
2022-08-20T05:39:06.979Z,99772.78
2022-08-20T05:41:33.993Z,99767.97
2022-08-20T05:44:01.605Z,99772.94
2022-08-20T05:46:31.336Z,99765.56
2022-08-20T05:49:00.017Z,99766.94
2022-08-20T05:51:28.348Z,99769.81
2022-08-20T05:53:57.418Z,99772.41
2022-08-20T05:56:26.896Z,99772.03
2022-08-20T05:58:53.784Z,99771.72
2022-08-20T06:01:20.396Z,99761.41
2022-08-20T06:04:05.574Z,99751.31
2022-08-20T06:06:45.700Z,99741.97
2022-08-20T06:09:14.743Z,99742.97
2022-08-20T06:11:41.263Z,99753.28
2022-08-20T06:14:07.853Z,99749.88
2022-08-20T06:16:34.487Z,99745.84
2022-08-20T06:19:04.710Z,99761.28
2022-08-20T06:21:31.768Z,99763.28
2022-08-20T06:24:01.114Z,99767.94
2022-08-20T06:26:30.046Z,99770.44
2022-08-20T06:28:57.311Z,99780.03
2022-08-20T06:31:24.382Z,99780.09
2022-08-20T06:33:50.900Z,99788.25
2022-08-20T06:36:19.042Z,99795.56
2022-08-20T06:38:46.432Z,99801.25
2022-08-20T06:41:14.046Z,99795.09
2022-08-20T06:43:40.819Z,99796.25
2022-08-20T06:46:07.805Z,99807.34
2022-08-20T06:48:34.834Z,99807.50
2022-08-20T06:51:01.676Z,99817.66
2022-08-20T06:53:29.082Z,99823.72
2022-08-20T06:55:58.907Z,99813.47
2022-08-20T06:58:37.322Z,99817.44
2022-08-20T07:01:10.742Z,99835.16
2022-08-20T07:03:39.146Z,99860.06
2022-08-20T07:06:06.731Z,99869.84
2022-08-20T07:08:34.034Z,99854.19
2022-08-20T07:11:00.829Z,99855.22
2022-08-20T07:13:28.783Z,99850.03
2022-08-20T07:15:56.163Z,99851.91
2022-08-20T07:18:28.847Z,99854.91
2022-08-20T07:20:57.351Z,99839.06
2022-08-20T07:23:27.401Z,99850.25
2022-08-20T07:25:55.673Z,99845.84
2022-08-20T07:28:24.712Z,99846.22
2022-08-20T07:31:13.855Z,99854.22
2022-08-20T07:33:44.532Z,99860.13
2022-08-20T07:36:12.647Z,99868.63
2022-08-20T07:38:39.324Z,99879.41
2022-08-20T07:41:10.003Z,99888.31
2022-08-20T07:43:36.703Z,99896.13
2022-08-20T07:46:08.974Z,99920.22
2022-08-20T07:48:46.271Z,99944.50
2022-08-20T07:51:17.102Z,99973.69
2022-08-20T07:53:46.708Z,100002.34
2022-08-20T07:56:19.361Z,100010.81
2022-08-20T07:58:50.123Z,100014.81
2022-08-20T08:01:25.844Z,100003.88
2022-08-20T08:03:52.992Z,99995.91
2022-08-20T08:06:29.394Z,99988.59
2022-08-20T08:09:06.924Z,99982.72
2022-08-20T08:11:37.624Z,99982.44
2022-08-20T08:14:06.890Z,99986.03
2022-08-20T08:16:35.113Z,100002.16
2022-08-20T08:19:04.754Z,100002.56
2022-08-20T08:21:31.455Z,100012.06
2022-08-20T08:23:58.526Z,100028.44
2022-08-20T08:26:26.279Z,100029.31
2022-08-20T08:28:52.810Z,100022.56
2022-08-20T08:31:19.375Z,99999.22
2022-08-20T08:33:46.385Z,99987.03
2022-08-20T08:36:15.419Z,99970.22
2022-08-20T08:38:45.222Z,99977.56
2022-08-20T08:41:14.698Z,99969.41
2022-08-20T08:43:45.514Z,99958.69
2022-08-20T08:46:13.688Z,99954.91
2022-08-20T08:48:47.131Z,99957.03
2022-08-20T08:51:18.962Z,99947.56
2022-08-20T08:53:54.787Z,99954.94
2022-08-20T08:56:28.476Z,99935.63
2022-08-20T08:59:00.489Z,99929.75
2022-08-20T09:01:54.243Z,99929.97
2022-08-20T09:04:17.742Z,99933.72
2022-08-20T09:06:52.957Z,99942.97
2022-08-20T09:09:24.810Z,99956.63
2022-08-20T09:11:55.170Z,99971.97
2022-08-20T09:14:24.880Z,100001.63
2022-08-20T09:16:53.476Z,100008.97
2022-08-20T09:19:21.329Z,100015.50
2022-08-20T09:21:48.227Z,100019.28
2022-08-20T09:24:14.762Z,100016.97
2022-08-20T09:26:41.379Z,100014.03
2022-08-20T09:29:08.036Z,100013.81
2022-08-20T09:31:35.317Z,100014.44
2022-08-20T09:34:03.965Z,100003.72
2022-08-20T09:36:32.528Z,99998.88
2022-08-20T09:39:00.582Z,99994.88
2022-08-20T09:41:31.219Z,99977.25
2022-08-20T09:44:00.521Z,99973.03
2022-08-20T09:46:27.686Z,99958.53
2022-08-20T09:48:54.865Z,99954.53
2022-08-20T09:51:21.985Z,99947.59
2022-08-20T09:53:49.109Z,99924.69
2022-08-20T09:56:16.912Z,99909.56
2022-08-20T09:58:50.038Z,99891.91
2022-08-20T10:01:19.573Z,99869.44
2022-08-20T10:03:48.939Z,99862.25
2022-08-20T10:06:20.181Z,99853.66
2022-08-20T10:08:47.283Z,99842.06
2022-08-20T10:11:13.794Z,99822.22
2022-08-20T10:13:40.366Z,99785.97
2022-08-20T10:16:07.295Z,99748.00
2022-08-20T10:18:34.974Z,99719.44
2022-08-20T10:21:01.534Z,99717.28
2022-08-20T10:23:28.170Z,99744.44
2022-08-20T10:25:54.723Z,99768.22
2022-08-20T10:28:21.242Z,99791.69
2022-08-20T10:30:47.872Z,99813.75
2022-08-20T10:33:14.458Z,99837.75
2022-08-20T10:35:41.046Z,99857.91
2022-08-20T10:38:07.588Z,99880.38
2022-08-20T10:40:34.110Z,99884.53
2022-08-20T10:43:00.770Z,99891.75
2022-08-20T10:45:27.463Z,99903.44
2022-08-20T10:47:54.068Z,99918.69
2022-08-20T10:50:20.957Z,99928.78
2022-08-20T10:52:47.612Z,99921.81
2022-08-20T10:55:14.735Z,99916.72
2022-08-20T10:57:43.424Z,99910.22
2022-08-20T11:00:15.089Z,99919.34
2022-08-20T11:02:41.630Z,99923.03
2022-08-20T11:05:09.129Z,99927.97
2022-08-20T11:07:50.506Z,99927.19
2022-08-20T11:10:25.189Z,99923.25
2022-08-20T11:12:51.752Z,99932.16
2022-08-20T11:15:18.523Z,99936.81
2022-08-20T11:17:45.708Z,99954.44
2022-08-20T11:20:14.875Z,99957.94
2022-08-20T11:22:41.447Z,99951.72
2022-08-20T11:25:09.283Z,99953.94
2022-08-20T11:27:48.302Z,99939.94
2022-08-20T11:30:19.623Z,99938.84
2022-08-20T11:32:46.179Z,99939.69
2022-08-20T11:35:41.090Z,99936.47
2022-08-20T11:38:01.099Z,99929.13
2022-08-20T11:40:29.383Z,99911.56
2022-08-20T11:43:14.282Z,99917.81
2022-08-20T11:45:41.598Z,99926.34
2022-08-20T11:48:08.140Z,99921.53
2022-08-20T11:50:34.711Z,99914.72
2022-08-20T11:53:01.796Z,99917.19
2022-08-20T11:55:30.388Z,99916.75
2022-08-20T11:57:59.877Z,99897.72
2022-08-20T12:00:32.991Z,99907.56
2022-08-20T12:03:01.490Z,99899.53
2022-08-20T12:05:29.789Z,99897.75
2022-08-20T12:07:57.868Z,99898.56
2022-08-20T12:10:26.811Z,99891.41
2022-08-20T12:12:54.336Z,99884.56
2022-08-20T12:15:21.006Z,99877.91
2022-08-20T12:17:47.839Z,99869.19
2022-08-20T12:20:15.563Z,99871.81
2022-08-20T12:22:42.338Z,99854.97
2022-08-20T12:25:09.428Z,99859.97
2022-08-20T12:27:37.290Z,99856.88
2022-08-20T12:30:11.070Z,99842.28
2022-08-20T12:32:37.650Z,99846.22
2022-08-20T12:35:06.747Z,99833.88
2022-08-20T12:37:33.564Z,99836.78
2022-08-20T12:40:02.078Z,99830.22
2022-08-20T12:42:31.666Z,99825.88
2022-08-20T12:44:59.698Z,99814.78
2022-08-20T12:47:35.166Z,99816.66
2022-08-20T12:50:09.295Z,99808.19
2022-08-20T12:52:36.459Z,99787.00
2022-08-20T12:55:05.078Z,99788.41
2022-08-20T12:57:34.850Z,99786.63
2022-08-20T13:00:08.628Z,99783.88
2022-08-20T13:02:35.501Z,99786.00
2022-08-20T13:05:04.943Z,99787.34
2022-08-20T13:07:33.070Z,99788.28
2022-08-20T13:09:59.996Z,99781.47
2022-08-20T13:12:27.028Z,99789.38
2022-08-20T13:14:53.546Z,99793.69
2022-08-20T13:17:20.367Z,99791.66
2022-08-20T13:20:00.199Z,99797.84
2022-08-20T13:22:26.824Z,99793.44
2022-08-20T13:24:53.809Z,99800.00
2022-08-20T13:27:22.611Z,99786.63
2022-08-20T13:29:53.997Z,99786.50
2022-08-20T13:32:23.571Z,99778.09
2022-08-20T13:34:51.668Z,99781.13
2022-08-20T13:37:25.078Z,99779.19
2022-08-20T13:39:53.425Z,99788.63
2022-08-20T13:42:20.227Z,99799.06
2022-08-20T13:44:46.811Z,99786.34
2022-08-20T13:47:18.447Z,99789.22
2022-08-20T13:49:45.540Z,99791.50
2022-08-20T13:52:12.572Z,99805.69
2022-08-20T13:54:43.672Z,99816.69
2022-08-20T13:57:13.605Z,99811.78
2022-08-20T13:59:43.453Z,99822.69
2022-08-20T14:02:11.769Z,99829.47
2022-08-20T14:04:40.218Z,99830.47
2022-08-20T14:07:15.831Z,99823.53
2022-08-20T14:09:45.067Z,99798.59
2022-08-20T14:12:13.335Z,99791.63
2022-08-20T14:14:40.724Z,99780.50
2022-08-20T14:17:26.833Z,99784.84
2022-08-20T14:20:00.904Z,99777.75
2022-08-20T14:22:29.106Z,99778.38
2022-08-20T14:24:56.540Z,99776.88
2022-08-20T14:27:27.791Z,99778.91
2022-08-20T14:29:58.146Z,99789.28
2022-08-20T14:32:24.813Z,99788.69
2022-08-20T14:34:51.446Z,99783.03
2022-08-20T14:37:21.265Z,99781.69
2022-08-20T14:39:51.282Z,99783.84
2022-08-20T14:42:18.272Z,99783.28
2022-08-20T14:44:44.983Z,99775.09
2022-08-20T14:47:14.711Z,99777.31
2022-08-20T14:49:41.355Z,99770.16
2022-08-20T14:52:08.067Z,99776.97
2022-08-20T14:54:35.312Z,99773.38
2022-08-20T14:57:02.321Z,99780.31
2022-08-20T14:59:29.307Z,99784.38
2022-08-20T15:01:56.127Z,99798.00
2022-08-20T15:04:23.905Z,99795.25
2022-08-20T15:06:53.307Z,99794.34
2022-08-20T15:09:21.282Z,99799.50
2022-08-20T15:11:47.855Z,99803.50
2022-08-20T15:14:15.060Z,99810.41
2022-08-20T15:16:45.050Z,99817.88
2022-08-20T15:19:11.712Z,99819.78
2022-08-20T15:21:44.981Z,99814.06
2022-08-20T15:24:19.359Z,99811.66
2022-08-20T15:26:46.078Z,99810.25
2022-08-20T15:29:12.794Z,99815.84
2022-08-20T15:31:49.755Z,99810.34
2022-08-20T15:34:17.823Z,99807.28
2022-08-20T15:36:45.180Z,99800.19
2022-08-20T15:39:11.855Z,99804.75
2022-08-20T15:41:38.394Z,99812.50
2022-08-20T15:44:04.986Z,99824.44
2022-08-20T15:46:36.174Z,99817.78
2022-08-20T15:49:11.344Z,99808.81
2022-08-20T15:51:46.533Z,99821.47
2022-08-20T15:54:22.106Z,99812.84
2022-08-20T15:57:02.882Z,99818.63
2022-08-20T15:59:53.771Z,99822.69
2022-08-20T16:02:38.943Z,99824.22
2022-08-20T16:05:11.448Z,99828.28
2022-08-20T16:07:58.671Z,99820.75
2022-08-20T16:10:41.017Z,99826.25
2022-08-20T16:13:19.327Z,99824.44
2022-08-20T16:15:49.410Z,99828.03
2022-08-20T16:18:23.075Z,99827.91
2022-08-20T16:20:53.634Z,99829.00
2022-08-20T16:23:27.989Z,99825.78
2022-08-20T16:26:12.635Z,99830.91
2022-08-20T16:28:57.461Z,99831.72
2022-08-20T16:31:29.450Z,99842.03
2022-08-20T16:34:28.176Z,99839.75
2022-08-20T16:37:25.389Z,99841.28
2022-08-20T16:40:13.357Z,99838.09
2022-08-20T16:42:43.957Z,99838.09
2022-08-20T16:45:19.297Z,99842.72
2022-08-20T16:47:46.451Z,99839.28
2022-08-20T16:50:23.964Z,99833.31
2022-08-20T16:52:51.765Z,99833.19
2022-08-20T16:55:22.066Z,99836.91
2022-08-20T16:57:49.304Z,99842.50
2022-08-20T17:00:30.393Z,99837.94
2022-08-20T17:02:59.537Z,99836.53
2022-08-20T17:05:49.834Z,99839.97
2022-08-20T17:08:31.118Z,99837.44
2022-08-20T17:11:13.126Z,99842.56
2022-08-20T17:13:42.690Z,99845.38
2022-08-20T17:16:14.916Z,99843.03
2022-08-20T17:18:53.311Z,99835.63
2022-08-20T17:21:28.138Z,99835.16
2022-08-20T17:24:09.616Z,99833.94
2022-08-20T17:26:47.823Z,99836.88
2022-08-20T17:29:20.420Z,99838.19
2022-08-20T17:31:56.451Z,99833.34
2022-08-20T17:34:30.104Z,99837.84
2022-08-20T17:37:10.917Z,99843.78
2022-08-20T17:39:46.708Z,99842.09
2022-08-20T17:42:22.782Z,99838.97
2022-08-20T17:45:15.510Z,99834.53
2022-08-20T17:47:43.960Z,99835.56
2022-08-20T17:50:18.615Z,99830.97
2022-08-20T17:52:56.078Z,99822.13
2022-08-20T17:55:23.710Z,99821.16
2022-08-20T17:57:56.566Z,99822.88
2022-08-20T18:00:26.149Z,99832.00
2022-08-20T18:03:20.857Z,99832.75
2022-08-20T18:05:50.370Z,99825.59
2022-08-20T18:08:40.907Z,99824.78
2022-08-20T18:11:16.389Z,99829.72
2022-08-20T18:13:57.916Z,99820.47
2022-08-20T18:16:45.500Z,99808.97
2022-08-20T18:19:33.758Z,99801.66
2022-08-20T18:22:13.270Z,99804.47
2022-08-20T18:24:48.757Z,99798.81
2022-08-20T18:27:18.717Z,99793.44
2022-08-20T18:29:52.312Z,99794.06
2022-08-20T18:32:29.571Z,99793.22
2022-08-20T18:35:08.514Z,99804.63
2022-08-20T18:37:35.251Z,99810.91
2022-08-20T18:40:17.078Z,99814.53
2022-08-20T18:42:45.785Z,99817.94
2022-08-20T18:45:12.802Z,99813.97
2022-08-20T18:47:45.166Z,99822.88
2022-08-20T18:50:36.422Z,99822.50
2022-08-20T18:53:16.927Z,99816.97
2022-08-20T18:56:27.326Z,99817.91
2022-08-20T18:59:22.986Z,99819.81
2022-08-20T19:01:50.023Z,99817.34
2022-08-20T19:04:31.961Z,99815.84
2022-08-20T19:07:10.199Z,99810.78
2022-08-20T19:09:52.228Z,99814.13
2022-08-20T19:12:27.779Z,99819.81
2022-08-20T19:14:57.222Z,99821.53
2022-08-20T19:17:35.194Z,99819.69
2022-08-20T19:20:16.890Z,99822.22
2022-08-20T19:22:44.665Z,99818.00
2022-08-20T19:25:54.218Z,99810.06
2022-08-20T19:28:31.913Z,99815.59
2022-08-20T19:31:20.884Z,99804.28
2022-08-20T19:33:48.468Z,99809.53
2022-08-20T19:36:28.396Z,99802.81
2022-08-20T19:38:58.305Z,99796.47
2022-08-20T19:41:31.447Z,99810.59
2022-08-20T19:43:59.818Z,99808.25
2022-08-20T19:46:33.879Z,99798.19
2022-08-20T19:49:15.774Z,99805.31
2022-08-20T19:52:00.207Z,99804.91
2022-08-20T19:54:29.442Z,99805.94
2022-08-20T19:56:57.818Z,99798.16
2022-08-20T19:59:25.267Z,99796.94
2022-08-20T20:02:02.494Z,99791.69
2022-08-20T20:04:37.629Z,99797.75
2022-08-20T20:07:15.722Z,99776.31
2022-08-20T20:09:42.595Z,99781.16
2022-08-20T20:12:22.838Z,99783.91
2022-08-20T20:14:52.520Z,99784.13
2022-08-20T20:17:24.758Z,99776.34
2022-08-20T20:19:56.849Z,99770.88
2022-08-20T20:22:33.107Z,99769.59
2022-08-20T20:25:20.015Z,99773.16
2022-08-20T20:27:52.326Z,99772.09
2022-08-20T20:30:28.686Z,99771.06
2022-08-20T20:32:58.240Z,99766.00
2022-08-20T20:35:34.201Z,99766.84
2022-08-20T20:38:07.960Z,99763.69
2022-08-20T20:40:45.709Z,99769.56
2022-08-20T20:43:24.310Z,99770.81
2022-08-20T20:46:02.492Z,99762.44
2022-08-20T20:48:40.218Z,99759.09
2022-08-20T20:51:30.849Z,99766.88
2022-08-20T20:54:02.420Z,99766.22
2022-08-20T20:56:51.262Z,99759.69
2022-08-20T20:59:17.782Z,99755.28
2022-08-20T21:01:48.151Z,99764.31
2022-08-20T21:04:19.051Z,99765.56
2022-08-20T21:06:46.093Z,99759.69
2022-08-20T21:09:13.428Z,99756.09
2022-08-20T21:11:39.975Z,99755.28
2022-08-20T21:14:06.782Z,99756.97
2022-08-20T21:16:33.391Z,99758.84
2022-08-20T21:19:05.568Z,99760.53
2022-08-20T21:21:32.354Z,99761.41
2022-08-20T21:23:59.120Z,99758.22
2022-08-20T21:26:27.870Z,99762.44
2022-08-20T21:28:54.615Z,99765.81
2022-08-20T21:31:21.412Z,99758.25
2022-08-20T21:33:49.017Z,99749.84
2022-08-20T21:36:16.025Z,99746.69
2022-08-20T21:38:42.571Z,99752.16
2022-08-20T21:41:09.354Z,99759.94
2022-08-20T21:43:35.889Z,99750.91
2022-08-20T21:46:04.095Z,99761.00
2022-08-20T21:48:32.335Z,99766.69
2022-08-20T21:50:58.869Z,99762.06
2022-08-20T21:53:25.428Z,99777.81
2022-08-20T21:55:52.062Z,99776.13
2022-08-20T21:58:19.668Z,99774.25
2022-08-20T22:00:50.910Z,99772.97
2022-08-20T22:03:19.978Z,99767.31
2022-08-20T22:05:47.463Z,99772.78
2022-08-20T22:08:14.091Z,99773.63
2022-08-20T22:10:40.665Z,99779.09
2022-08-20T22:13:07.388Z,99781.41
2022-08-20T22:15:34.334Z,99777.84
2022-08-20T22:18:01.145Z,99773.63
2022-08-20T22:20:27.892Z,99767.75
2022-08-20T22:22:54.973Z,99762.91
2022-08-20T22:25:21.524Z,99766.03
2022-08-20T22:27:48.048Z,99773.22
2022-08-20T22:30:14.799Z,99756.38
2022-08-20T22:32:51.647Z,99767.09
2022-08-20T22:35:19.522Z,99766.03
2022-08-20T22:37:46.264Z,99763.75
2022-08-20T22:40:13.027Z,99761.63
2022-08-20T22:42:39.651Z,99753.44
2022-08-20T22:45:11.544Z,99756.59
2022-08-20T22:47:42.315Z,99754.50
2022-08-20T22:50:10.187Z,99755.13
2022-08-20T22:52:39.475Z,99761.66
2022-08-20T22:55:06.828Z,99755.78
2022-08-20T22:57:34.239Z,99749.91
2022-08-20T23:00:01.078Z,99759.56
2022-08-20T23:02:27.717Z,99743.38
2022-08-20T23:04:54.306Z,99735.81
2022-08-20T23:07:21.001Z,99728.25
2022-08-20T23:09:47.564Z,99730.97
2022-08-20T23:12:14.110Z,99728.47
2022-08-20T23:14:40.902Z,99724.88
2022-08-20T23:17:13.639Z,99725.53
2022-08-20T23:19:41.827Z,99723.63
2022-08-20T23:22:08.668Z,99725.28
2022-08-20T23:24:35.547Z,99721.09
2022-08-20T23:27:03.332Z,99719.41
2022-08-20T23:29:30.678Z,99725.72
2022-08-20T23:31:58.376Z,99717.34
2022-08-20T23:34:25.965Z,99716.28
2022-08-20T23:36:53.983Z,99715.25
2022-08-20T23:39:20.584Z,99710.66
2022-08-20T23:41:48.091Z,99708.34
2022-08-20T23:44:26.067Z,99707.28
2022-08-20T23:46:55.095Z,99700.16
2022-08-20T23:49:21.755Z,99710.66
2022-08-20T23:51:48.347Z,99710.00
2022-08-20T23:54:14.970Z,99708.09
2022-08-20T23:56:41.617Z,99703.72
2022-08-20T23:59:08.171Z,99698.28
